sensor_id;sensor_type;location;lat;lon;timestamp;pressure;altitude;pressure_sealevel;temperature;humidity
35655;BME280;21773;50.010;19.972;2022-12-07T00:02:19;98257.00;;;8.31;63.00
35655;BME280;21773;50.010;19.972;2022-12-07T00:05:23;98262.19;;;8.26;63.02
35655;BME280;21773;50.010;19.972;2022-12-07T00:08:27;98260.94;;;8.28;63.00
35655;BME280;21773;50.010;19.972;2022-12-07T00:11:32;98257.44;;;8.28;63.25
35655;BME280;21773;50.010;19.972;2022-12-07T00:14:35;98259.09;;;8.29;63.20
35655;BME280;21773;50.010;19.972;2022-12-07T00:17:38;98252.03;;;8.35;63.06
35655;BME280;21773;50.010;19.972;2022-12-07T00:20:42;98260.63;;;8.43;63.06
35655;BME280;21773;50.010;19.972;2022-12-07T00:23:47;98257.31;;;8.41;62.60
35655;BME280;21773;50.010;19.972;2022-12-07T00:26:52;98255.03;;;8.45;62.75
35655;BME280;21773;50.010;19.972;2022-12-07T00:29:55;98258.44;;;8.52;62.53
35655;BME280;21773;50.010;19.972;2022-12-07T00:32:58;98260.09;;;8.53;62.41
35655;BME280;21773;50.010;19.972;2022-12-07T00:36:03;98257.19;;;8.54;62.35
35655;BME280;21773;50.010;19.972;2022-12-07T00:39:08;98258.97;;;8.60;62.50
35655;BME280;21773;50.010;19.972;2022-12-07T00:42:13;98259.34;;;8.64;62.15
35655;BME280;21773;50.010;19.972;2022-12-07T00:45:16;98256.94;;;8.56;61.92
35655;BME280;21773;50.010;19.972;2022-12-07T00:48:20;98265.63;;;8.58;62.02
35655;BME280;21773;50.010;19.972;2022-12-07T00:51:24;98245.78;;;8.59;61.97
35655;BME280;21773;50.010;19.972;2022-12-07T00:54:28;98255.53;;;8.72;61.85
35655;BME280;21773;50.010;19.972;2022-12-07T00:57:33;98247.03;;;8.75;61.81
35655;BME280;21773;50.010;19.972;2022-12-07T01:00:38;98245.53;;;8.79;61.50
35655;BME280;21773;50.010;19.972;2022-12-07T01:03:41;98249.72;;;8.75;61.71
35655;BME280;21773;50.010;19.972;2022-12-07T01:06:45;98251.00;;;8.72;61.77
35655;BME280;21773;50.010;19.972;2022-12-07T01:09:49;98235.06;;;8.70;61.97
35655;BME280;21773;50.010;19.972;2022-12-07T01:12:53;98241.13;;;8.66;61.95
35655;BME280;21773;50.010;19.972;2022-12-07T01:15:58;98238.69;;;8.64;62.16
35655;BME280;21773;50.010;19.972;2022-12-07T01:19:02;98234.50;;;8.68;61.98
35655;BME280;21773;50.010;19.972;2022-12-07T01:22:07;98236.94;;;8.70;62.11
35655;BME280;21773;50.010;19.972;2022-12-07T01:25:11;98224.66;;;8.62;62.07
35655;BME280;21773;50.010;19.972;2022-12-07T01:28:16;98232.38;;;8.70;62.11
35655;BME280;21773;50.010;19.972;2022-12-07T01:31:21;98231.19;;;8.66;62.13
35655;BME280;21773;50.010;19.972;2022-12-07T01:34:25;98238.44;;;8.66;62.33
35655;BME280;21773;50.010;19.972;2022-12-07T01:37:28;98223.81;;;8.62;62.36
35655;BME280;21773;50.010;19.972;2022-12-07T01:40:36;98224.88;;;8.61;62.33
35655;BME280;21773;50.010;19.972;2022-12-07T01:44:09;98224.66;;;8.62;62.32
35655;BME280;21773;50.010;19.972;2022-12-07T01:47:12;98230.16;;;8.67;62.17
35655;BME280;21773;50.010;19.972;2022-12-07T01:50:16;98235.38;;;8.62;61.90
35655;BME280;21773;50.010;19.972;2022-12-07T01:53:21;98210.78;;;8.47;62.06
35655;BME280;21773;50.010;19.972;2022-12-07T01:56:29;98220.78;;;8.58;62.20
35655;BME280;21773;50.010;19.972;2022-12-07T01:59:35;98233.31;;;8.46;62.13
35655;BME280;21773;50.010;19.972;2022-12-07T02:02:43;98225.25;;;8.46;62.07
35655;BME280;21773;50.010;19.972;2022-12-07T02:05:49;98184.78;;;8.23;61.89
35655;BME280;21773;50.010;19.972;2022-12-07T02:08:53;98222.13;;;8.49;61.46
35655;BME280;21773;50.010;19.972;2022-12-07T02:11:57;98217.44;;;8.45;61.80
35655;BME280;21773;50.010;19.972;2022-12-07T02:15:02;98214.97;;;8.43;61.31
35655;BME280;21773;50.010;19.972;2022-12-07T02:18:09;98204.00;;;8.45;61.46
35655;BME280;21773;50.010;19.972;2022-12-07T02:21:21;98207.13;;;8.42;61.49
35655;BME280;21773;50.010;19.972;2022-12-07T02:24:42;98189.19;;;8.17;61.37
35655;BME280;21773;50.010;19.972;2022-12-07T02:27:56;98208.97;;;8.41;61.52
35655;BME280;21773;50.010;19.972;2022-12-07T02:31:11;98212.94;;;8.39;61.40
35655;BME280;21773;50.010;19.972;2022-12-07T02:34:26;98216.22;;;8.41;61.73
35655;BME280;21773;50.010;19.972;2022-12-07T02:37:37;98220.94;;;8.45;61.58
35655;BME280;21773;50.010;19.972;2022-12-07T02:40:48;98215.69;;;8.50;61.06
35655;BME280;21773;50.010;19.972;2022-12-07T02:43:54;98209.72;;;8.48;60.87
35655;BME280;21773;50.010;19.972;2022-12-07T02:47:05;98210.56;;;8.49;61.05
35655;BME280;21773;50.010;19.972;2022-12-07T02:50:09;98208.69;;;8.49;60.83
35655;BME280;21773;50.010;19.972;2022-12-07T02:53:32;98206.38;;;8.53;60.79
35655;BME280;21773;50.010;19.972;2022-12-07T02:56:41;98212.09;;;8.56;60.57
35655;BME280;21773;50.010;19.972;2022-12-07T02:59:59;98201.16;;;8.58;60.37
35655;BME280;21773;50.010;19.972;2022-12-07T03:03:09;98203.22;;;8.56;60.59
35655;BME280;21773;50.010;19.972;2022-12-07T03:06:17;98195.63;;;8.53;60.39
35655;BME280;21773;50.010;19.972;2022-12-07T03:09:28;98197.03;;;8.55;60.58
35655;BME280;21773;50.010;19.972;2022-12-07T03:12:42;98190.84;;;8.55;60.50
35655;BME280;21773;50.010;19.972;2022-12-07T03:15:53;98196.66;;;8.52;60.51
35655;BME280;21773;50.010;19.972;2022-12-07T03:19:03;98195.84;;;8.51;60.72
35655;BME280;21773;50.010;19.972;2022-12-07T03:22:11;98191.06;;;8.53;60.71
35655;BME280;21773;50.010;19.972;2022-12-07T03:25:16;98184.41;;;8.56;60.53
35655;BME280;21773;50.010;19.972;2022-12-07T03:28:22;98168.94;;;8.40;60.65
35655;BME280;21773;50.010;19.972;2022-12-07T03:31:30;98181.22;;;8.47;60.77
35655;BME280;21773;50.010;19.972;2022-12-07T03:34:41;98184.28;;;8.51;61.09
35655;BME280;21773;50.010;19.972;2022-12-07T03:37:52;98183.69;;;8.49;61.29
35655;BME280;21773;50.010;19.972;2022-12-07T03:41:00;98177.28;;;8.50;61.31
35655;BME280;21773;50.010;19.972;2022-12-07T03:44:05;98178.31;;;8.49;61.30
35655;BME280;21773;50.010;19.972;2022-12-07T03:47:14;98174.44;;;8.45;61.48
35655;BME280;21773;50.010;19.972;2022-12-07T03:50:29;98171.16;;;8.43;61.50
35655;BME280;21773;50.010;19.972;2022-12-07T03:53:38;98169.06;;;8.45;61.63
35655;BME280;21773;50.010;19.972;2022-12-07T03:56:44;98171.75;;;8.45;61.78
35655;BME280;21773;50.010;19.972;2022-12-07T03:59:48;98163.72;;;8.45;61.70
35655;BME280;21773;50.010;19.972;2022-12-07T04:02:53;98165.31;;;8.46;61.77
35655;BME280;21773;50.010;19.972;2022-12-07T04:05:58;98154.69;;;8.39;61.86
35655;BME280;21773;50.010;19.972;2022-12-07T04:09:03;98155.19;;;8.48;61.83
35655;BME280;21773;50.010;19.972;2022-12-07T04:12:06;98161.75;;;8.52;61.78
35655;BME280;21773;50.010;19.972;2022-12-07T04:15:10;98159.16;;;8.45;61.91
35655;BME280;21773;50.010;19.972;2022-12-07T04:18:13;98168.25;;;8.44;62.12
35655;BME280;21773;50.010;19.972;2022-12-07T04:21:18;98160.41;;;8.43;62.06
35655;BME280;21773;50.010;19.972;2022-12-07T04:24:21;98159.38;;;8.44;62.12
35655;BME280;21773;50.010;19.972;2022-12-07T04:27:25;98163.91;;;8.43;62.38
35655;BME280;21773;50.010;19.972;2022-12-07T04:30:28;98162.63;;;8.46;62.42
35655;BME280;21773;50.010;19.972;2022-12-07T04:33:31;98156.69;;;8.44;62.68
35655;BME280;21773;50.010;19.972;2022-12-07T04:36:36;98163.25;;;8.48;62.84
35655;BME280;21773;50.010;19.972;2022-12-07T04:39:40;98142.78;;;8.28;63.22
35655;BME280;21773;50.010;19.972;2022-12-07T04:42:45;98150.28;;;8.45;62.98
35655;BME280;21773;50.010;19.972;2022-12-07T04:45:49;98155.88;;;8.43;63.09
35655;BME280;21773;50.010;19.972;2022-12-07T04:48:53;98141.09;;;8.34;63.61
35655;BME280;21773;50.010;19.972;2022-12-07T04:51:59;98154.44;;;8.41;63.53
35655;BME280;21773;50.010;19.972;2022-12-07T04:55:03;98158.09;;;8.46;63.09
35655;BME280;21773;50.010;19.972;2022-12-07T04:58:07;98155.19;;;8.48;63.86
35655;BME280;21773;50.010;19.972;2022-12-07T05:01:11;98151.09;;;8.45;64.03
35655;BME280;21773;50.010;19.972;2022-12-07T05:04:14;98151.97;;;8.57;63.79
35655;BME280;21773;50.010;19.972;2022-12-07T05:07:21;98150.09;;;8.58;63.83
35655;BME280;21773;50.010;19.972;2022-12-07T05:10:24;98146.50;;;8.64;63.58
35655;BME280;21773;50.010;19.972;2022-12-07T05:13:28;98137.50;;;8.58;63.55
35655;BME280;21773;50.010;19.972;2022-12-07T05:16:31;98152.03;;;8.69;63.30
35655;BME280;21773;50.010;19.972;2022-12-07T05:19:35;98145.53;;;8.58;63.52
35655;BME280;21773;50.010;19.972;2022-12-07T05:22:40;98154.03;;;8.55;63.89
35655;BME280;21773;50.010;19.972;2022-12-07T05:25:43;98145.19;;;8.55;64.04
35655;BME280;21773;50.010;19.972;2022-12-07T05:28:50;98145.63;;;8.52;64.08
35655;BME280;21773;50.010;19.972;2022-12-07T05:31:53;98147.88;;;8.55;64.15
35655;BME280;21773;50.010;19.972;2022-12-07T05:34:57;98159.81;;;8.41;64.45
35655;BME280;21773;50.010;19.972;2022-12-07T05:38:02;98156.84;;;8.49;64.12
35655;BME280;21773;50.010;19.972;2022-12-07T05:41:06;98157.41;;;8.51;64.17
35655;BME280;21773;50.010;19.972;2022-12-07T05:44:30;98164.13;;;8.60;63.87
35655;BME280;21773;50.010;19.972;2022-12-07T05:47:33;98162.84;;;8.62;63.40
35655;BME280;21773;50.010;19.972;2022-12-07T05:50:36;98168.44;;;8.61;63.54
35655;BME280;21773;50.010;19.972;2022-12-07T05:53:41;98165.19;;;8.59;63.83
35655;BME280;21773;50.010;19.972;2022-12-07T05:56:44;98168.91;;;8.58;63.60
35655;BME280;21773;50.010;19.972;2022-12-07T05:59:48;98179.28;;;8.54;63.64
35655;BME280;21773;50.010;19.972;2022-12-07T06:02:51;98175.09;;;8.58;63.21
35655;BME280;21773;50.010;19.972;2022-12-07T06:05:56;98178.00;;;8.57;62.83
35655;BME280;21773;50.010;19.972;2022-12-07T06:09:00;98175.38;;;8.50;62.87
35655;BME280;21773;50.010;19.972;2022-12-07T06:12:04;98171.97;;;8.43;62.95
35655;BME280;21773;50.010;19.972;2022-12-07T06:15:26;98172.19;;;8.42;62.41
35655;BME280;21773;50.010;19.972;2022-12-07T06:18:29;98174.31;;;8.40;62.52
35655;BME280;21773;50.010;19.972;2022-12-07T06:21:33;98174.59;;;8.32;62.81
35655;BME280;21773;50.010;19.972;2022-12-07T06:24:38;98177.22;;;8.38;62.44
35655;BME280;21773;50.010;19.972;2022-12-07T06:27:42;98181.59;;;8.33;62.29
35655;BME280;21773;50.010;19.972;2022-12-07T06:30:45;98179.78;;;8.26;62.49
35655;BME280;21773;50.010;19.972;2022-12-07T06:33:48;98179.41;;;8.23;62.74
35655;BME280;21773;50.010;19.972;2022-12-07T06:36:52;98183.44;;;8.14;62.61
35655;BME280;21773;50.010;19.972;2022-12-07T06:39:58;98180.44;;;8.22;62.34
35655;BME280;21773;50.010;19.972;2022-12-07T06:43:02;98180.38;;;8.28;62.23
35655;BME280;21773;50.010;19.972;2022-12-07T06:46:05;98176.88;;;8.28;62.21
35655;BME280;21773;50.010;19.972;2022-12-07T06:49:09;98183.38;;;8.20;62.25
35655;BME280;21773;50.010;19.972;2022-12-07T06:52:12;98181.50;;;8.21;62.58
35655;BME280;21773;50.010;19.972;2022-12-07T06:55:17;98189.69;;;8.26;62.26
35655;BME280;21773;50.010;19.972;2022-12-07T06:58:20;98181.06;;;8.24;62.22
35655;BME280;21773;50.010;19.972;2022-12-07T07:01:24;98195.69;;;8.28;62.19
35655;BME280;21773;50.010;19.972;2022-12-07T07:04:27;98192.34;;;8.33;62.27
35655;BME280;21773;50.010;19.972;2022-12-07T07:07:31;98197.50;;;8.34;62.20
35655;BME280;21773;50.010;19.972;2022-12-07T07:10:55;98201.16;;;8.40;62.17
35655;BME280;21773;50.010;19.972;2022-12-07T07:13:59;98200.75;;;8.36;61.95
35655;BME280;21773;50.010;19.972;2022-12-07T07:17:04;98202.00;;;8.40;61.80
35655;BME280;21773;50.010;19.972;2022-12-07T07:20:08;98201.16;;;8.40;61.64
35655;BME280;21773;50.010;19.972;2022-12-07T07:23:12;98194.34;;;8.37;61.91
35655;BME280;21773;50.010;19.972;2022-12-07T07:26:17;98198.69;;;8.38;61.95
35655;BME280;21773;50.010;19.972;2022-12-07T07:29:24;98206.91;;;8.43;62.30
35655;BME280;21773;50.010;19.972;2022-12-07T07:32:27;98207.78;;;8.37;61.98
35655;BME280;21773;50.010;19.972;2022-12-07T07:35:32;98205.31;;;8.36;62.24
35655;BME280;21773;50.010;19.972;2022-12-07T07:38:36;98203.44;;;8.36;62.07
35655;BME280;21773;50.010;19.972;2022-12-07T07:41:40;98208.78;;;8.18;62.39
35655;BME280;21773;50.010;19.972;2022-12-07T07:44:48;98209.09;;;8.10;62.31
35655;BME280;21773;50.010;19.972;2022-12-07T07:47:51;98210.06;;;8.15;62.43
35655;BME280;21773;50.010;19.972;2022-12-07T07:50:54;98200.97;;;8.16;62.14
35655;BME280;21773;50.010;19.972;2022-12-07T07:53:58;98208.63;;;8.13;61.78
35655;BME280;21773;50.010;19.972;2022-12-07T07:57:03;98215.03;;;8.12;62.45
35655;BME280;21773;50.010;19.972;2022-12-07T08:00:08;98220.56;;;7.99;62.68
35655;BME280;21773;50.010;19.972;2022-12-07T08:03:16;98207.13;;;7.99;62.80
35655;BME280;21773;50.010;19.972;2022-12-07T08:06:19;98219.16;;;7.96;62.97
35655;BME280;21773;50.010;19.972;2022-12-07T08:09:23;98217.81;;;8.05;62.75
35655;BME280;21773;50.010;19.972;2022-12-07T08:12:28;98220.72;;;8.04;62.77
35655;BME280;21773;50.010;19.972;2022-12-07T08:15:31;98226.63;;;7.88;63.00
35655;BME280;21773;50.010;19.972;2022-12-07T08:18:35;98238.56;;;7.92;63.28
35655;BME280;21773;50.010;19.972;2022-12-07T08:21:39;98236.38;;;7.82;63.31
35655;BME280;21773;50.010;19.972;2022-12-07T08:24:43;98236.63;;;7.80;63.34
35655;BME280;21773;50.010;19.972;2022-12-07T08:27:48;98244.06;;;7.78;63.69
35655;BME280;21773;50.010;19.972;2022-12-07T08:30:51;98238.69;;;7.78;63.91
35655;BME280;21773;50.010;19.972;2022-12-07T08:33:55;98242.66;;;7.76;63.95
35655;BME280;21773;50.010;19.972;2022-12-07T08:36:59;98240.78;;;7.76;63.94
35655;BME280;21773;50.010;19.972;2022-12-07T08:40:03;98242.09;;;7.92;63.80
35655;BME280;21773;50.010;19.972;2022-12-07T08:43:08;98237.78;;;7.91;63.52
35655;BME280;21773;50.010;19.972;2022-12-07T08:46:14;98254.41;;;8.00;63.42
35655;BME280;21773;50.010;19.972;2022-12-07T08:49:24;98236.66;;;7.99;63.43
35655;BME280;21773;50.010;19.972;2022-12-07T08:52:30;98246.94;;;8.02;63.39
35655;BME280;21773;50.010;19.972;2022-12-07T08:55:34;98242.56;;;8.07;63.31
35655;BME280;21773;50.010;19.972;2022-12-07T08:58:39;98241.31;;;8.10;63.11
35655;BME280;21773;50.010;19.972;2022-12-07T09:01:43;98252.47;;;8.07;63.39
35655;BME280;21773;50.010;19.972;2022-12-07T09:04:46;98243.34;;;8.14;63.25
35655;BME280;21773;50.010;19.972;2022-12-07T09:07:51;98259.56;;;8.01;63.57
35655;BME280;21773;50.010;19.972;2022-12-07T09:10:57;98255.41;;;8.23;63.22
35655;BME280;21773;50.010;19.972;2022-12-07T09:14:02;98250.19;;;8.28;63.21
35655;BME280;21773;50.010;19.972;2022-12-07T09:17:06;98250.75;;;8.37;63.31
35655;BME280;21773;50.010;19.972;2022-12-07T09:20:11;98245.50;;;8.24;62.94
35655;BME280;21773;50.010;19.972;2022-12-07T09:23:15;98257.09;;;8.43;62.65
35655;BME280;21773;50.010;19.972;2022-12-07T09:26:19;98243.47;;;8.44;62.63
35655;BME280;21773;50.010;19.972;2022-12-07T09:29:23;98241.50;;;8.51;62.60
35655;BME280;21773;50.010;19.972;2022-12-07T09:32:27;98246.75;;;8.64;62.79
35655;BME280;21773;50.010;19.972;2022-12-07T09:35:30;98236.78;;;8.65;61.68
35655;BME280;21773;50.010;19.972;2022-12-07T09:38:34;98230.97;;;8.86;61.81
35655;BME280;21773;50.010;19.972;2022-12-07T09:41:38;98229.59;;;8.95;61.38
35655;BME280;21773;50.010;19.972;2022-12-07T09:44:44;98234.16;;;8.95;61.15
35655;BME280;21773;50.010;19.972;2022-12-07T09:47:47;98237.72;;;9.07;60.87
35655;BME280;21773;50.010;19.972;2022-12-07T09:50:54;98230.78;;;8.99;60.71
35655;BME280;21773;50.010;19.972;2022-12-07T09:53:59;98228.47;;;9.03;60.63
35655;BME280;21773;50.010;19.972;2022-12-07T09:57:03;98230.00;;;9.10;60.63
35655;BME280;21773;50.010;19.972;2022-12-07T10:00:12;98228.63;;;9.08;60.15
35655;BME280;21773;50.010;19.972;2022-12-07T10:03:16;98233.53;;;9.11;59.92
35655;BME280;21773;50.010;19.972;2022-12-07T10:06:20;98222.28;;;9.02;60.28
35655;BME280;21773;50.010;19.972;2022-12-07T10:09:23;98218.69;;;9.08;60.01
35655;BME280;21773;50.010;19.972;2022-12-07T10:12:28;98220.91;;;9.11;60.53
35655;BME280;21773;50.010;19.972;2022-12-07T10:15:43;98211.78;;;9.12;60.08
35655;BME280;21773;50.010;19.972;2022-12-07T10:18:47;98211.81;;;8.94;60.38
35655;BME280;21773;50.010;19.972;2022-12-07T10:22:08;98216.16;;;8.95;61.10
35655;BME280;21773;50.010;19.972;2022-12-07T10:25:18;98208.00;;;9.02;61.26
35655;BME280;21773;50.010;19.972;2022-12-07T10:28:22;98213.84;;;8.99;61.39
35655;BME280;21773;50.010;19.972;2022-12-07T10:31:28;98202.22;;;8.87;61.75
35655;BME280;21773;50.010;19.972;2022-12-07T10:34:34;98201.06;;;8.94;61.61
35655;BME280;21773;50.010;19.972;2022-12-07T10:37:45;98199.25;;;9.06;61.50
35655;BME280;21773;50.010;19.972;2022-12-07T10:41:03;98195.06;;;9.10;61.27
35655;BME280;21773;50.010;19.972;2022-12-07T10:44:21;98197.53;;;9.12;61.30
35655;BME280;21773;50.010;19.972;2022-12-07T10:47:33;98193.41;;;9.09;61.31
35655;BME280;21773;50.010;19.972;2022-12-07T10:50:50;98186.03;;;9.05;61.57
35655;BME280;21773;50.010;19.972;2022-12-07T10:54:06;98182.44;;;9.11;60.70
35655;BME280;21773;50.010;19.972;2022-12-07T10:57:32;98180.59;;;9.23;60.87
35655;BME280;21773;50.010;19.972;2022-12-07T11:00:48;98164.78;;;9.15;60.59
35655;BME280;21773;50.010;19.972;2022-12-07T11:04:14;98178.84;;;9.29;60.26
35655;BME280;21773;50.010;19.972;2022-12-07T11:07:30;98175.97;;;9.42;59.86
35655;BME280;21773;50.010;19.972;2022-12-07T11:10:43;98169.72;;;9.30;58.68
35655;BME280;21773;50.010;19.972;2022-12-07T11:13:50;98158.28;;;9.23;58.84
35655;BME280;21773;50.010;19.972;2022-12-07T11:16:58;98170.47;;;9.37;59.24
35655;BME280;21773;50.010;19.972;2022-12-07T11:20:19;98164.94;;;9.43;58.46
35655;BME280;21773;50.010;19.972;2022-12-07T11:23:37;98168.50;;;9.55;58.16
35655;BME280;21773;50.010;19.972;2022-12-07T11:27:04;98156.44;;;9.58;57.83
35655;BME280;21773;50.010;19.972;2022-12-07T11:30:16;98155.50;;;9.64;56.47
35655;BME280;21773;50.010;19.972;2022-12-07T11:33:28;98155.28;;;9.77;56.78
35655;BME280;21773;50.010;19.972;2022-12-07T11:36:38;98161.59;;;9.94;56.38
35655;BME280;21773;50.010;19.972;2022-12-07T11:39:49;98158.06;;;9.94;55.37
35655;BME280;21773;50.010;19.972;2022-12-07T11:42:59;98153.97;;;10.03;55.43
35655;BME280;21773;50.010;19.972;2022-12-07T11:46:12;98141.31;;;10.04;54.89
35655;BME280;21773;50.010;19.972;2022-12-07T11:49:23;98152.22;;;10.09;54.35
35655;BME280;21773;50.010;19.972;2022-12-07T11:52:43;98155.50;;;10.11;54.04
35655;BME280;21773;50.010;19.972;2022-12-07T11:55:51;98140.38;;;10.10;53.89
35655;BME280;21773;50.010;19.972;2022-12-07T11:58:58;98146.13;;;10.13;54.10
35655;BME280;21773;50.010;19.972;2022-12-07T12:02:13;98146.84;;;10.20;54.47
35655;BME280;21773;50.010;19.972;2022-12-07T12:05:19;98144.50;;;10.24;54.21
35655;BME280;21773;50.010;19.972;2022-12-07T12:08:28;98114.50;;;10.09;53.60
35655;BME280;21773;50.010;19.972;2022-12-07T12:12:16;98138.41;;;10.17;53.27
35655;BME280;21773;50.010;19.972;2022-12-07T12:15:57;98144.03;;;10.04;53.00
35655;BME280;21773;50.010;19.972;2022-12-07T12:19:15;98127.16;;;10.08;52.74
35655;BME280;21773;50.010;19.972;2022-12-07T12:22:28;98133.97;;;10.11;52.00
35655;BME280;21773;50.010;19.972;2022-12-07T12:25:40;98133.97;;;10.11;51.76
35655;BME280;21773;50.010;19.972;2022-12-07T12:28:52;98122.69;;;10.02;51.88
35655;BME280;21773;50.010;19.972;2022-12-07T12:32:12;98120.13;;;10.07;51.69
35655;BME280;21773;50.010;19.972;2022-12-07T12:35:31;98127.41;;;10.07;51.96
35655;BME280;21773;50.010;19.972;2022-12-07T12:38:48;98118.84;;;10.10;52.11
35655;BME280;21773;50.010;19.972;2022-12-07T12:41:58;98128.31;;;10.12;51.28
35655;BME280;21773;50.010;19.972;2022-12-07T12:45:20;98113.13;;;9.94;51.17
35655;BME280;21773;50.010;19.972;2022-12-07T12:48:28;98111.63;;;9.87;50.16
35655;BME280;21773;50.010;19.972;2022-12-07T12:51:39;98119.47;;;9.77;50.47
35655;BME280;21773;50.010;19.972;2022-12-07T12:55:00;98122.84;;;9.84;50.99
35655;BME280;21773;50.010;19.972;2022-12-07T12:58:32;98126.97;;;9.86;50.57
35655;BME280;21773;50.010;19.972;2022-12-07T13:01:42;98122.03;;;9.83;50.27
35655;BME280;21773;50.010;19.972;2022-12-07T13:04:53;98129.16;;;9.78;49.95
35655;BME280;21773;50.010;19.972;2022-12-07T13:08:01;98124.50;;;9.73;49.55
35655;BME280;21773;50.010;19.972;2022-12-07T13:11:17;98130.84;;;9.67;50.21
35655;BME280;21773;50.010;19.972;2022-12-07T13:14:58;98132.81;;;9.60;49.37
35655;BME280;21773;50.010;19.972;2022-12-07T13:18:14;98123.09;;;9.59;49.20
35655;BME280;21773;50.010;19.972;2022-12-07T13:21:43;98107.63;;;9.31;49.15
35655;BME280;21773;50.010;19.972;2022-12-07T13:24:47;98101.78;;;9.34;49.57
35655;BME280;21773;50.010;19.972;2022-12-07T13:27:56;98122.97;;;9.54;49.08
35655;BME280;21773;50.010;19.972;2022-12-07T13:34:30;98111.63;;;9.64;48.60
35655;BME280;21773;50.010;19.972;2022-12-07T13:37:33;98128.72;;;9.81;48.72
35655;BME280;21773;50.010;19.972;2022-12-07T13:40:39;98139.00;;;9.95;48.40
35655;BME280;21773;50.010;19.972;2022-12-07T13:43:45;98135.38;;;10.02;48.04
35655;BME280;21773;50.010;19.972;2022-12-07T13:46:55;98146.94;;;10.02;48.15
35655;BME280;21773;50.010;19.972;2022-12-07T13:50:01;98150.72;;;10.01;48.27
35655;BME280;21773;50.010;19.972;2022-12-07T13:53:12;98148.72;;;9.96;48.55
35655;BME280;21773;50.010;19.972;2022-12-07T13:56:17;98147.53;;;10.04;48.67
35655;BME280;21773;50.010;19.972;2022-12-07T13:59:22;98147.75;;;10.14;48.15
35655;BME280;21773;50.010;19.972;2022-12-07T14:02:30;98151.06;;;10.16;47.92
35655;BME280;21773;50.010;19.972;2022-12-07T14:05:37;98149.28;;;10.22;48.57
35655;BME280;21773;50.010;19.972;2022-12-07T14:08:41;98149.88;;;10.35;48.48
35655;BME280;21773;50.010;19.972;2022-12-07T14:11:45;98156.97;;;10.41;48.25
35655;BME280;21773;50.010;19.972;2022-12-07T14:14:49;98152.78;;;10.46;47.79
35655;BME280;21773;50.010;19.972;2022-12-07T14:17:55;98163.47;;;10.29;47.39
35655;BME280;21773;50.010;19.972;2022-12-07T14:21:05;98165.19;;;10.12;47.60
35655;BME280;21773;50.010;19.972;2022-12-07T14:24:12;98158.69;;;9.96;47.63
35655;BME280;21773;50.010;19.972;2022-12-07T14:27:18;98158.19;;;9.87;47.99
35655;BME280;21773;50.010;19.972;2022-12-07T14:30:24;98157.28;;;9.70;48.01
35655;BME280;21773;50.010;19.972;2022-12-07T14:33:30;98165.44;;;9.52;47.88
35655;BME280;21773;50.010;19.972;2022-12-07T14:36:33;98162.38;;;9.37;47.62
35655;BME280;21773;50.010;19.972;2022-12-07T14:39:36;98153.97;;;9.33;48.07
35655;BME280;21773;50.010;19.972;2022-12-07T14:42:41;98153.81;;;9.17;48.03
35655;BME280;21773;50.010;19.972;2022-12-07T14:45:45;98161.38;;;9.08;48.18
35655;BME280;21773;50.010;19.972;2022-12-07T14:48:50;98154.72;;;8.99;48.24
35655;BME280;21773;50.010;19.972;2022-12-07T14:52:16;98153.63;;;9.00;48.48
35655;BME280;21773;50.010;19.972;2022-12-07T14:55:40;98156.78;;;8.97;48.32
35655;BME280;21773;50.010;19.972;2022-12-07T14:58:44;98152.38;;;9.02;48.15
35655;BME280;21773;50.010;19.972;2022-12-07T15:01:50;98155.06;;;9.02;48.05
35655;BME280;21773;50.010;19.972;2022-12-07T15:04:55;98150.81;;;8.95;48.33
35655;BME280;21773;50.010;19.972;2022-12-07T15:07:59;98154.22;;;9.02;48.55
35655;BME280;21773;50.010;19.972;2022-12-07T15:11:02;98152.72;;;9.06;48.66
35655;BME280;21773;50.010;19.972;2022-12-07T15:14:06;98162.63;;;8.94;49.56
35655;BME280;21773;50.010;19.972;2022-12-07T15:17:14;98155.16;;;8.96;49.95
35655;BME280;21773;50.010;19.972;2022-12-07T15:20:32;98160.53;;;8.96;50.42
35655;BME280;21773;50.010;19.972;2022-12-07T15:23:35;98151.06;;;8.93;50.33
35655;BME280;21773;50.010;19.972;2022-12-07T15:26:39;98161.69;;;9.00;50.69
35655;BME280;21773;50.010;19.972;2022-12-07T15:29:43;98167.91;;;9.00;50.49
35655;BME280;21773;50.010;19.972;2022-12-07T15:32:48;98171.31;;;9.07;50.54
35655;BME280;21773;50.010;19.972;2022-12-07T15:35:53;98164.22;;;9.13;50.57
35655;BME280;21773;50.010;19.972;2022-12-07T15:38:57;98169.59;;;9.13;50.61
35655;BME280;21773;50.010;19.972;2022-12-07T15:42:16;98179.53;;;9.12;50.27
35655;BME280;21773;50.010;19.972;2022-12-07T15:45:19;98180.47;;;9.18;50.53
35655;BME280;21773;50.010;19.972;2022-12-07T15:48:22;98181.66;;;9.22;50.28
35655;BME280;21773;50.010;19.972;2022-12-07T15:51:31;98192.16;;;9.24;50.43
35655;BME280;21773;50.010;19.972;2022-12-07T15:54:35;98176.38;;;9.16;50.42
35655;BME280;21773;50.010;19.972;2022-12-07T15:57:39;98185.47;;;9.14;50.04
35655;BME280;21773;50.010;19.972;2022-12-07T16:00:42;98187.84;;;9.23;50.15
35655;BME280;21773;50.010;19.972;2022-12-07T16:03:46;98195.31;;;9.21;49.91
35655;BME280;21773;50.010;19.972;2022-12-07T16:06:51;98194.00;;;9.11;49.98
35655;BME280;21773;50.010;19.972;2022-12-07T16:09:54;98202.91;;;9.12;49.91
35655;BME280;21773;50.010;19.972;2022-12-07T16:12:58;98200.22;;;9.12;50.14
35655;BME280;21773;50.010;19.972;2022-12-07T16:16:03;98194.63;;;9.13;49.98
35655;BME280;21773;50.010;19.972;2022-12-07T16:19:07;98192.72;;;9.14;49.95
35655;BME280;21773;50.010;19.972;2022-12-07T16:22:12;98195.09;;;9.22;50.19
35655;BME280;21773;50.010;19.972;2022-12-07T16:25:15;98192.63;;;9.21;49.78
35655;BME280;21773;50.010;19.972;2022-12-07T16:28:19;98189.69;;;9.10;49.75
35655;BME280;21773;50.010;19.972;2022-12-07T16:31:24;98202.56;;;9.20;49.66
35655;BME280;21773;50.010;19.972;2022-12-07T16:34:28;98194.28;;;9.22;49.71
35655;BME280;21773;50.010;19.972;2022-12-07T16:37:32;98205.13;;;9.15;49.53